createdAt,value
2022-09-25T00:00:44.060Z,15.91
2022-09-25T00:03:11.639Z,16.06
2022-09-25T00:05:39.381Z,15.79
2022-09-25T00:08:06.803Z,15.95
2022-09-25T00:10:33.960Z,15.71
2022-09-25T00:13:00.657Z,15.78
2022-09-25T00:15:27.433Z,15.86
2022-09-25T00:17:54.510Z,15.62
2022-09-25T00:20:22.968Z,15.64
2022-09-25T00:22:49.959Z,15.60
2022-09-25T00:25:17.167Z,15.55
2022-09-25T00:27:44.366Z,15.51
2022-09-25T00:30:11.559Z,15.49
2022-09-25T00:32:38.677Z,15.61
2022-09-25T00:35:05.696Z,15.72
2022-09-25T00:37:36.581Z,15.81
2022-09-25T00:40:04.681Z,15.73
2022-09-25T00:42:32.027Z,16.00
2022-09-25T00:45:00.888Z,15.97
2022-09-25T00:47:28.059Z,15.78
2022-09-25T00:49:55.318Z,15.77
2022-09-25T00:52:22.098Z,15.86
2022-09-25T00:54:50.878Z,15.80
2022-09-25T00:57:18.847Z,15.94
2022-09-25T00:59:47.127Z,15.80
2022-09-25T01:02:17.012Z,15.59
2022-09-25T01:04:46.173Z,15.58
2022-09-25T01:07:13.164Z,15.68
2022-09-25T01:09:41.078Z,15.78
2022-09-25T01:12:09.650Z,16.06
2022-09-25T01:14:36.595Z,15.98
2022-09-25T01:17:03.609Z,15.86
2022-09-25T01:19:43.215Z,15.91
2022-09-25T01:22:13.262Z,15.92
2022-09-25T01:24:51.414Z,15.71
2022-09-25T01:27:18.415Z,15.84
2022-09-25T01:29:48.542Z,15.87
2022-09-25T01:32:20.448Z,15.90
2022-09-25T01:34:50.762Z,15.90
2022-09-25T01:37:18.934Z,15.89
2022-09-25T01:39:46.511Z,15.89
2022-09-25T01:42:23.512Z,15.85
2022-09-25T01:44:52.614Z,16.01
2022-09-25T01:47:22.313Z,15.97
2022-09-25T01:49:50.814Z,16.20
2022-09-25T01:52:18.022Z,15.98
2022-09-25T01:54:45.864Z,16.19
2022-09-25T01:57:14.415Z,15.88
2022-09-25T01:59:47.634Z,15.62
2022-09-25T02:02:15.664Z,15.85
2022-09-25T02:05:08.779Z,15.98
2022-09-25T02:07:37.102Z,15.68
2022-09-25T02:10:14.752Z,15.78
2022-09-25T02:12:46.806Z,15.70
2022-09-25T02:15:15.586Z,15.52
2022-09-25T02:18:04.288Z,15.97
2022-09-25T02:20:34.405Z,15.92
2022-09-25T02:23:05.623Z,15.56
2022-09-25T02:25:43.554Z,15.55
2022-09-25T02:28:10.284Z,15.54
2022-09-25T02:30:37.351Z,15.66
2022-09-25T02:33:04.113Z,15.63
2022-09-25T02:35:31.376Z,15.51
2022-09-25T02:37:58.382Z,15.50
2022-09-25T02:40:34.657Z,15.20
2022-09-25T02:43:09.318Z,15.06
2022-09-25T02:45:41.945Z,15.14
2022-09-25T02:48:12.291Z,15.28
2022-09-25T02:51:02.811Z,15.18
2022-09-25T02:53:39.289Z,15.20
2022-09-25T02:56:09.018Z,15.23
2022-09-25T02:58:37.703Z,15.40
2022-09-25T03:01:05.249Z,15.31
2022-09-25T03:03:32.084Z,15.10
2022-09-25T03:05:59.630Z,15.02
2022-09-25T03:08:39.247Z,15.37
2022-09-25T03:11:06.990Z,15.02
2022-09-25T03:13:34.197Z,14.95
2022-09-25T03:16:20.447Z,15.12
2022-09-25T03:18:47.819Z,15.08
2022-09-25T03:21:14.647Z,15.06
2022-09-25T03:23:41.700Z,15.14
2022-09-25T03:26:08.731Z,15.08
2022-09-25T03:28:35.650Z,15.28
2022-09-25T03:31:04.042Z,15.45
2022-09-25T03:33:35.360Z,15.17
2022-09-25T03:36:18.974Z,15.11
2022-09-25T03:38:50.605Z,15.21
2022-09-25T03:41:20.155Z,15.23
2022-09-25T03:43:48.930Z,14.99
2022-09-25T03:46:15.770Z,15.02
2022-09-25T03:48:42.624Z,15.15
2022-09-25T03:51:09.757Z,15.19
2022-09-25T03:53:36.688Z,15.37
2022-09-25T03:56:05.018Z,15.29
2022-09-25T03:58:32.212Z,15.32
2022-09-25T04:01:02.046Z,15.10
2022-09-25T04:03:29.558Z,15.32
2022-09-25T04:05:56.845Z,15.23
2022-09-25T04:08:25.497Z,15.18
2022-09-25T04:11:02.138Z,15.36
2022-09-25T04:13:30.082Z,15.47
2022-09-25T04:15:57.665Z,15.59
2022-09-25T04:18:24.898Z,15.47
2022-09-25T04:20:51.752Z,15.37
2022-09-25T04:23:18.758Z,15.23
2022-09-25T04:25:45.953Z,15.40
2022-09-25T04:28:12.975Z,15.30
2022-09-25T04:30:39.960Z,15.10
2022-09-25T04:33:25.257Z,15.34
2022-09-25T04:35:52.584Z,15.50
2022-09-25T04:38:19.333Z,15.55
2022-09-25T04:40:46.298Z,15.40
2022-09-25T04:43:13.371Z,14.97
2022-09-25T04:45:40.112Z,15.21
2022-09-25T04:48:06.814Z,15.24
2022-09-25T04:50:34.061Z,15.19
2022-09-25T04:53:02.634Z,15.40
2022-09-25T04:55:29.476Z,15.08
2022-09-25T04:57:59.748Z,15.30
2022-09-25T05:00:31.507Z,15.51
2022-09-25T05:02:58.821Z,15.36
2022-09-25T05:05:28.217Z,15.54
2022-09-25T05:07:55.774Z,15.64
2022-09-25T05:10:27.436Z,15.66
2022-09-25T05:12:54.627Z,15.66
2022-09-25T05:15:21.648Z,15.76
2022-09-25T05:17:48.945Z,15.62
2022-09-25T05:20:17.167Z,15.76
2022-09-25T05:22:44.347Z,15.59
2022-09-25T05:25:11.903Z,15.78
2022-09-25T05:27:38.719Z,15.95
2022-09-25T05:30:05.877Z,15.80
2022-09-25T05:32:32.887Z,15.72
2022-09-25T05:34:59.727Z,15.77
2022-09-25T05:37:26.431Z,15.83
2022-09-25T05:39:53.519Z,15.90
2022-09-25T05:42:20.607Z,16.24
2022-09-25T05:44:47.306Z,15.93
2022-09-25T05:47:14.262Z,15.91
2022-09-25T05:49:41.035Z,15.95
2022-09-25T05:52:07.731Z,16.09
2022-09-25T05:54:34.703Z,16.00
2022-09-25T05:57:02.542Z,16.03
2022-09-25T05:59:29.638Z,16.01
2022-09-25T06:01:56.660Z,16.28
2022-09-25T06:04:23.800Z,16.08
2022-09-25T06:06:50.525Z,16.10
2022-09-25T06:09:17.288Z,16.41
2022-09-25T06:11:48.123Z,16.53
2022-09-25T06:14:15.090Z,16.32
2022-09-25T06:16:41.791Z,16.11
2022-09-25T06:19:08.858Z,16.45
2022-09-25T06:21:35.617Z,16.50
2022-09-25T06:24:02.341Z,16.46
2022-09-25T06:26:29.507Z,16.55
2022-09-25T06:29:00.956Z,16.75
2022-09-25T06:31:30.232Z,16.73
2022-09-25T06:33:56.957Z,16.95
2022-09-25T06:36:23.638Z,16.89
2022-09-25T06:38:54.495Z,16.97
2022-09-25T06:41:21.568Z,16.92
2022-09-25T06:43:52.468Z,17.03
2022-09-25T06:46:20.208Z,17.02
2022-09-25T06:48:54.272Z,16.82
2022-09-25T06:51:22.484Z,17.02
2022-09-25T06:53:53.699Z,17.08
2022-09-25T06:56:21.630Z,17.24
2022-09-25T06:58:48.611Z,17.22
2022-09-25T07:01:15.318Z,17.23
2022-09-25T07:03:45.084Z,17.19
2022-09-25T07:06:20.150Z,17.38
2022-09-25T07:08:48.416Z,17.46
2022-09-25T07:11:16.811Z,17.63
2022-09-25T07:13:43.640Z,17.59
2022-09-25T07:16:12.182Z,17.54
2022-09-25T07:18:39.153Z,17.63
2022-09-25T07:21:10.739Z,17.65
2022-09-25T07:23:37.966Z,17.80
2022-09-25T07:26:08.088Z,17.86
2022-09-25T07:28:35.093Z,17.80
2022-09-25T07:31:14.190Z,17.98
2022-09-25T07:33:41.323Z,18.25
2022-09-25T07:36:09.164Z,18.21
2022-09-25T07:38:37.083Z,18.32
2022-09-25T07:41:05.570Z,18.17
2022-09-25T07:43:35.675Z,18.50
2022-09-25T07:46:02.498Z,18.63
2022-09-25T07:48:30.984Z,18.60
2022-09-25T07:51:04.490Z,18.30
2022-09-25T07:53:31.544Z,18.38
2022-09-25T07:56:06.185Z,18.48
2022-09-25T07:58:35.425Z,18.63
2022-09-25T08:01:02.986Z,18.92
2022-09-25T08:03:30.053Z,18.31
2022-09-25T08:06:00.597Z,18.13
2022-09-25T08:08:27.724Z,18.50
2022-09-25T08:10:56.588Z,18.66
2022-09-25T08:13:23.341Z,18.12
2022-09-25T08:15:50.137Z,18.63
2022-09-25T08:18:17.297Z,18.70
2022-09-25T08:20:44.386Z,18.43
2022-09-25T08:23:11.123Z,18.36
2022-09-25T08:25:38.114Z,18.54
2022-09-25T08:28:04.796Z,18.43
2022-09-25T08:30:31.651Z,17.99
2022-09-25T08:32:58.627Z,18.36
2022-09-25T08:35:26.145Z,18.17
2022-09-25T08:37:53.510Z,17.95
2022-09-25T08:40:26.935Z,17.82
2022-09-25T08:42:54.129Z,18.26
2022-09-25T08:45:54.201Z,18.37
2022-09-25T08:48:48.360Z,18.69
2022-09-25T08:51:15.335Z,18.81
2022-09-25T08:53:43.615Z,18.71
2022-09-25T08:56:19.646Z,18.38
2022-09-25T08:58:53.915Z,18.86
2022-09-25T09:01:25.362Z,18.88
2022-09-25T09:03:54.100Z,18.66
2022-09-25T09:06:20.797Z,18.86
2022-09-25T09:09:07.732Z,19.00
2022-09-25T09:11:42.761Z,18.97
2022-09-25T09:14:13.820Z,19.03
2022-09-25T09:16:54.476Z,19.03
2022-09-25T09:19:21.189Z,18.49
2022-09-25T09:21:48.248Z,18.29
2022-09-25T09:24:18.895Z,18.72
2022-09-25T09:26:50.068Z,19.00
2022-09-25T09:29:33.460Z,19.00
2022-09-25T09:32:11.294Z,18.91
2022-09-25T09:35:04.314Z,18.95
2022-09-25T09:37:31.741Z,18.21
2022-09-25T09:40:02.962Z,18.75
2022-09-25T09:42:34.375Z,19.15
2022-09-25T09:45:14.139Z,18.66
2022-09-25T09:47:43.863Z,18.45
2022-09-25T09:50:14.132Z,18.73
2022-09-25T09:52:42.380Z,18.30
2022-09-25T09:55:09.115Z,18.61
2022-09-25T09:57:40.758Z,18.63
2022-09-25T10:00:12.248Z,18.62
2022-09-25T10:02:39.284Z,18.87
2022-09-25T10:05:08.422Z,18.61
2022-09-25T10:07:36.230Z,18.57
2022-09-25T10:10:06.334Z,18.51
2022-09-25T10:12:33.801Z,18.10
2022-09-25T10:15:02.131Z,18.35
2022-09-25T10:17:28.872Z,18.33
2022-09-25T10:20:04.901Z,18.47
2022-09-25T10:22:38.631Z,18.40
2022-09-25T10:25:06.605Z,18.56
2022-09-25T10:27:36.028Z,18.66
2022-09-25T10:30:12.054Z,18.35
2022-09-25T10:32:45.392Z,18.49
2022-09-25T10:35:19.636Z,18.47
2022-09-25T10:37:52.164Z,18.53
2022-09-25T10:40:51.008Z,18.47
2022-09-25T10:43:20.673Z,18.57
2022-09-25T10:45:49.263Z,18.78
2022-09-25T10:48:48.893Z,18.45
2022-09-25T10:51:18.235Z,18.29
2022-09-25T10:53:45.849Z,18.54
2022-09-25T10:56:14.934Z,18.67
2022-09-25T10:58:43.045Z,19.09
2022-09-25T11:01:13.362Z,18.95
2022-09-25T11:03:45.069Z,18.40
2022-09-25T11:06:20.880Z,18.62
2022-09-25T11:08:49.674Z,19.10
2022-09-25T11:11:21.016Z,19.19
2022-09-25T11:13:48.649Z,19.28
2022-09-25T11:16:15.515Z,19.50
2022-09-25T11:18:42.587Z,19.45
2022-09-25T11:21:18.634Z,19.41
2022-09-25T11:23:53.791Z,18.95
2022-09-25T11:26:21.425Z,19.51
2022-09-25T11:29:04.023Z,19.63
2022-09-25T11:31:38.903Z,19.55
2022-09-25T11:34:14.738Z,19.33
2022-09-25T11:36:43.548Z,19.22
2022-09-25T11:39:31.004Z,19.19
2022-09-25T11:41:59.817Z,19.27
2022-09-25T11:44:32.044Z,19.05
2022-09-25T11:47:04.958Z,19.16
2022-09-25T11:49:34.427Z,19.25
2022-09-25T11:52:19.964Z,19.03
2022-09-25T11:54:51.103Z,19.11
2022-09-25T11:57:24.227Z,19.07
2022-09-25T12:00:12.931Z,19.30
2022-09-25T12:02:42.806Z,19.29
2022-09-25T12:05:15.430Z,19.12
2022-09-25T12:08:05.440Z,19.21
2022-09-25T12:10:36.420Z,19.23
2022-09-25T12:13:22.398Z,19.12
2022-09-25T12:16:08.906Z,19.23
2022-09-25T12:18:40.337Z,19.02
2022-09-25T12:21:10.003Z,19.05
2022-09-25T12:23:51.318Z,18.84
2022-09-25T12:26:25.041Z,18.98
2022-09-25T12:28:55.633Z,18.85
2022-09-25T12:31:23.799Z,18.82
2022-09-25T12:33:57.278Z,19.04
2022-09-25T12:36:36.884Z,18.82
2022-09-25T12:39:10.887Z,18.89
2022-09-25T12:41:43.703Z,18.72
2022-09-25T12:44:25.139Z,18.89
2022-09-25T12:46:59.032Z,18.89
2022-09-25T12:49:27.379Z,18.80
2022-09-25T12:51:54.989Z,19.03
2022-09-25T12:54:40.648Z,19.00
2022-09-25T12:57:19.928Z,18.73
2022-09-25T12:59:48.634Z,18.87
2022-09-25T13:02:22.249Z,18.69
2022-09-25T13:04:52.698Z,18.84
2022-09-25T13:07:20.434Z,18.77
2022-09-25T13:09:48.606Z,18.95
2022-09-25T13:12:18.630Z,19.03
2022-09-25T13:14:57.110Z,18.86
2022-09-25T13:17:24.415Z,18.68
2022-09-25T13:19:52.415Z,18.55
2022-09-25T13:22:28.877Z,18.76
2022-09-25T13:25:03.709Z,18.70
2022-09-25T13:27:37.484Z,18.51
2022-09-25T13:30:08.732Z,18.66
2022-09-25T13:32:36.315Z,18.56
2022-09-25T13:35:07.568Z,18.78
2022-09-25T13:37:36.189Z,18.53
2022-09-25T13:40:26.701Z,18.59
2022-09-25T13:42:54.495Z,18.61
2022-09-25T13:45:32.655Z,18.57
2022-09-25T13:48:10.603Z,18.63
2022-09-25T13:50:38.621Z,18.65
2022-09-25T13:53:17.405Z,18.79
2022-09-25T13:56:04.203Z,18.79
2022-09-25T13:58:32.344Z,18.75
2022-09-25T14:00:59.523Z,18.75
2022-09-25T14:03:32.119Z,18.45
2022-09-25T14:05:59.304Z,18.52
2022-09-25T14:08:26.258Z,18.52
2022-09-25T14:10:54.473Z,18.71
2022-09-25T14:13:25.341Z,18.61
2022-09-25T14:15:52.532Z,18.57
2022-09-25T14:18:22.292Z,18.63
2022-09-25T14:20:49.640Z,18.50
2022-09-25T14:23:23.476Z,18.36
2022-09-25T14:25:58.298Z,18.49
2022-09-25T14:28:26.724Z,18.40
2022-09-25T14:31:04.523Z,18.34
2022-09-25T14:33:35.367Z,18.63
2022-09-25T14:36:02.086Z,18.42
2022-09-25T14:38:37.826Z,18.48
2022-09-25T14:41:21.587Z,18.57
2022-09-25T14:43:48.885Z,18.48
2022-09-25T14:46:20.184Z,18.44
2022-09-25T14:48:49.104Z,18.48
2022-09-25T14:51:24.669Z,18.35
2022-09-25T14:53:55.253Z,18.32
2022-09-25T14:56:22.638Z,18.39
2022-09-25T14:58:50.315Z,18.52
2022-09-25T15:01:20.620Z,18.51
2022-09-25T15:03:48.826Z,18.47
2022-09-25T15:06:29.122Z,18.52
2022-09-25T15:08:56.237Z,18.47
2022-09-25T15:11:27.059Z,18.43
2022-09-25T15:13:54.898Z,18.34
2022-09-25T15:16:41.207Z,18.43
2022-09-25T15:19:12.417Z,18.66
2022-09-25T15:21:40.282Z,18.58
2022-09-25T15:24:11.109Z,18.30
2022-09-25T15:26:39.296Z,18.26
2022-09-25T15:29:13.615Z,18.49
2022-09-25T15:31:41.381Z,18.57
2022-09-25T15:34:12.078Z,18.49
2022-09-25T15:36:38.904Z,18.43
2022-09-25T15:39:15.998Z,18.21
2022-09-25T15:41:43.853Z,18.23
2022-09-25T15:44:19.548Z,18.36
2022-09-25T15:46:47.322Z,18.33
2022-09-25T15:49:14.767Z,18.25
2022-09-25T15:51:45.316Z,18.42
2022-09-25T15:54:30.649Z,18.46
2022-09-25T15:56:58.094Z,18.54
2022-09-25T15:59:26.437Z,18.50
2022-09-25T16:02:12.605Z,18.56
2022-09-25T16:04:49.705Z,18.50
2022-09-25T16:07:23.673Z,18.46
2022-09-25T16:09:51.842Z,18.35
2022-09-25T16:12:22.828Z,18.19
2022-09-25T16:14:49.920Z,18.26
2022-09-25T16:17:21.285Z,18.20
2022-09-25T16:19:57.503Z,18.13
2022-09-25T16:22:25.244Z,18.01
2022-09-25T16:25:16.216Z,18.39
2022-09-25T16:27:43.861Z,18.17
2022-09-25T16:30:22.240Z,18.20
2022-09-25T16:32:50.283Z,18.35
2022-09-25T16:36:08.965Z,18.22
2022-09-25T16:38:30.868Z,18.34
2022-09-25T16:41:06.542Z,18.35
2022-09-25T16:43:36.239Z,18.18
2022-09-25T16:46:03.848Z,18.27
2022-09-25T16:48:34.982Z,18.38
2022-09-25T16:51:02.034Z,18.35
2022-09-25T16:53:29.461Z,18.27
2022-09-25T16:55:57.967Z,18.11
2022-09-25T16:58:25.279Z,18.19
2022-09-25T17:00:52.216Z,18.26
2022-09-25T17:03:19.059Z,18.27
2022-09-25T17:05:47.642Z,18.27
2022-09-25T17:08:17.065Z,18.35
2022-09-25T17:10:43.980Z,18.46
2022-09-25T17:13:11.009Z,18.31
2022-09-25T17:15:37.739Z,18.32
2022-09-25T17:18:06.647Z,18.38
2022-09-25T17:20:36.446Z,18.34
2022-09-25T17:23:07.264Z,18.37
2022-09-25T17:25:45.986Z,18.17
2022-09-25T17:28:13.412Z,18.33
2022-09-25T17:30:44.526Z,18.37
2022-09-25T17:33:16.428Z,18.21
2022-09-25T17:35:43.705Z,18.27
2022-09-25T17:38:13.230Z,18.26
2022-09-25T17:40:42.204Z,18.23
2022-09-25T17:43:13.923Z,18.13
2022-09-25T17:45:48.734Z,18.12
2022-09-25T17:48:16.398Z,18.15
2022-09-25T17:50:52.887Z,18.12
2022-09-25T17:53:20.595Z,18.20
2022-09-25T17:55:52.579Z,18.19
2022-09-25T17:58:22.074Z,18.29
2022-09-25T18:00:49.007Z,18.40
2022-09-25T18:03:16.167Z,18.43
2022-09-25T18:05:45.785Z,18.16
2022-09-25T18:08:19.341Z,18.31
2022-09-25T18:11:03.057Z,18.23
2022-09-25T18:13:30.228Z,18.20
2022-09-25T18:16:03.383Z,18.05
2022-09-25T18:18:50.127Z,18.19
2022-09-25T18:21:39.785Z,18.05
2022-09-25T18:24:06.988Z,18.18
2022-09-25T18:26:34.470Z,18.32
2022-09-25T18:29:01.240Z,18.29
2022-09-25T18:31:28.002Z,18.10
2022-09-25T18:33:55.139Z,18.06
2022-09-25T18:36:22.409Z,18.06
2022-09-25T18:38:49.650Z,18.17
2022-09-25T18:41:17.131Z,18.19
2022-09-25T18:43:44.146Z,18.33
2022-09-25T18:46:14.515Z,18.26
2022-09-25T18:48:47.949Z,18.24
2022-09-25T18:51:16.542Z,18.23
2022-09-25T18:53:44.101Z,18.13
2022-09-25T18:56:13.369Z,17.99
2022-09-25T18:58:40.177Z,18.09
2022-09-25T19:01:08.227Z,18.15
2022-09-25T19:03:41.029Z,18.06
2022-09-25T19:06:08.209Z,18.18
2022-09-25T19:08:36.211Z,18.15
2022-09-25T19:11:03.200Z,18.12
2022-09-25T19:13:30.485Z,18.23
2022-09-25T19:15:59.221Z,18.18
2022-09-25T19:18:26.355Z,18.12
2022-09-25T19:20:58.181Z,18.12
2022-09-25T19:23:25.622Z,18.23
2022-09-25T19:26:01.720Z,18.11
2022-09-25T19:28:31.118Z,18.07
2022-09-25T19:31:03.099Z,18.40
2022-09-25T19:33:33.587Z,18.28
2022-09-25T19:36:01.161Z,18.15
2022-09-25T19:38:31.238Z,18.17
2022-09-25T19:41:03.761Z,18.08
2022-09-25T19:43:39.111Z,17.95
2022-09-25T19:46:06.868Z,17.99
2022-09-25T19:48:41.615Z,17.64
2022-09-25T19:51:09.005Z,18.11
2022-09-25T19:53:36.347Z,18.17
2022-09-25T19:56:05.843Z,18.01
2022-09-25T19:58:36.279Z,18.19
2022-09-25T20:01:04.071Z,18.16
2022-09-25T20:03:31.113Z,18.15
2022-09-25T20:06:00.774Z,18.01
2022-09-25T20:08:27.483Z,18.06
2022-09-25T20:10:54.531Z,17.96
2022-09-25T20:13:21.265Z,17.82
2022-09-25T20:15:48.171Z,18.03
2022-09-25T20:18:15.868Z,18.07
2022-09-25T20:20:45.930Z,17.97
2022-09-25T20:23:13.427Z,17.97
2022-09-25T20:25:40.365Z,18.02
2022-09-25T20:28:07.117Z,18.07
2022-09-25T20:30:35.575Z,17.89
2022-09-25T20:33:03.831Z,18.01
2022-09-25T20:35:30.716Z,17.93
2022-09-25T20:37:57.475Z,17.96
2022-09-25T20:40:24.602Z,18.00
2022-09-25T20:42:51.355Z,18.10
2022-09-25T20:45:18.079Z,18.11
2022-09-25T20:47:46.352Z,18.08
2022-09-25T20:50:13.441Z,17.41
2022-09-25T20:52:40.513Z,17.64
2022-09-25T20:55:07.693Z,17.90
2022-09-25T20:57:34.466Z,17.92
2022-09-25T21:00:02.143Z,17.93
2022-09-25T21:02:29.476Z,17.78
2022-09-25T21:04:56.973Z,17.75
2022-09-25T21:07:25.532Z,17.98
2022-09-25T21:09:53.146Z,18.02
2022-09-25T21:12:20.060Z,18.06
2022-09-25T21:14:46.743Z,18.25
2022-09-25T21:17:13.803Z,17.87
2022-09-25T21:19:40.555Z,17.81
2022-09-25T21:22:07.238Z,17.99
2022-09-25T21:24:35.142Z,18.03
2022-09-25T21:27:01.808Z,18.16
2022-09-25T21:29:28.633Z,18.21
2022-09-25T21:31:55.885Z,18.21
2022-09-25T21:34:22.777Z,18.08
2022-09-25T21:36:49.445Z,18.09
2022-09-25T21:39:16.498Z,18.03
2022-09-25T21:41:43.145Z,18.04
2022-09-25T21:44:11.880Z,17.94
2022-09-25T21:46:38.980Z,18.08
2022-09-25T21:49:06.216Z,17.90
2022-09-25T21:51:34.117Z,18.07
2022-09-25T21:54:01.803Z,17.93
2022-09-25T21:56:29.801Z,17.94
2022-09-25T21:58:57.379Z,18.01
2022-09-25T22:01:28.028Z,17.92
2022-09-25T22:03:55.798Z,18.06
2022-09-25T22:06:29.808Z,18.06
2022-09-25T22:08:57.618Z,18.16
2022-09-25T22:11:24.524Z,17.85
2022-09-25T22:13:51.521Z,17.96
2022-09-25T22:16:19.886Z,18.05
2022-09-25T22:18:47.552Z,17.93
2022-09-25T22:21:15.433Z,17.98
2022-09-25T22:23:42.859Z,17.78
2022-09-25T22:26:09.846Z,17.74
2022-09-25T22:28:36.661Z,17.82
2022-09-25T22:31:24.056Z,17.86
2022-09-25T22:33:54.277Z,17.82
2022-09-25T22:36:21.940Z,17.92
2022-09-25T22:38:48.631Z,17.93
2022-09-25T22:41:15.432Z,17.97
2022-09-25T22:43:42.791Z,18.05
2022-09-25T22:46:10.137Z,17.39
2022-09-25T22:48:37.269Z,17.70
2022-09-25T22:51:05.362Z,17.67
2022-09-25T22:53:32.638Z,17.91
2022-09-25T22:56:08.791Z,17.69
2022-09-25T22:58:35.964Z,17.81
2022-09-25T23:01:04.203Z,17.86
2022-09-25T23:03:30.933Z,17.92
2022-09-25T23:05:59.637Z,17.95
2022-09-25T23:08:26.304Z,17.89
2022-09-25T23:11:06.735Z,17.93
2022-09-25T23:13:35.135Z,17.74
2022-09-25T23:16:07.997Z,17.72
2022-09-25T23:18:35.679Z,17.71
2022-09-25T23:21:02.614Z,17.70
2022-09-25T23:23:29.291Z,17.78
2022-09-25T23:26:00.281Z,17.86
2022-09-25T23:28:27.597Z,18.02
2022-09-25T23:30:54.509Z,17.64
2022-09-25T23:33:21.501Z,17.55
2022-09-25T23:35:48.171Z,17.56
2022-09-25T23:38:15.766Z,17.81
2022-09-25T23:40:43.958Z,17.75
2022-09-25T23:43:10.703Z,17.82
2022-09-25T23:45:40.046Z,17.77
2022-09-25T23:48:07.065Z,17.80
2022-09-25T23:50:33.706Z,17.85
2022-09-25T23:53:00.489Z,17.72
2022-09-25T23:55:27.443Z,17.92
2022-09-25T23:57:54.219Z,17.58
